Cotes De La Manche — FQBE — position and weather

sailwx.info

Track history (hours):
 
Tides and Currents Weather Stations Pressure Air Temp Water Temp Dewpoint Dewpoint Depression Visibility Wind Speed Wind Dir Waves Ship Positions

Cotes De La Manche

Last reported at 2015-May-20 13:18 UTC. Time now 2015-May-24 19:26 UTC.
Position N 48°23' W 004°48'.

Length 25 m; draft 3.7 m.

Type: Other ship. MMSI: 227091000.

Date/timePositionNaut miles runAvg speedWind from/ knotsBaromVisibWave heightAir tempDewpointWater temp
2015-May-20 13:18N 48°23' W 004°48'6 8.8
2015-May-20 12:33N 48°19' W 004°41'9 8.8
2015-May-20 11:33N 48°23' W 004°29'0 0.0
2015-May-20 10:33N 48°23' W 004°29'0 0.0
2015-May-20 09:33N 48°23' W 004°29'0 0.0
2015-May-20 08:33N 48°23' W 004°29'0 0.0
2015-May-20 07:33N 48°23' W 004°29'0 0.0
2015-May-20 06:33N 48°23' W 004°29'0 0.0
2015-May-20 05:33N 48°23' W 004°29'0 0.0
2015-May-20 04:33N 48°23' W 004°29'0 0.0
2015-May-20 03:33N 48°23' W 004°29'0 0.0
2015-May-20 02:33N 48°23' W 004°29'0 0.0
2015-May-20 01:33N 48°23' W 004°29'0 0.0
2015-May-20 00:33N 48°23' W 004°29'0 0.0
2015-May-19 23:33N 48°23' W 004°29'0 0.0
2015-May-19 22:33N 48°23' W 004°29'0 0.0
2015-May-19 21:33N 48°23' W 004°29'0 0.0
2015-May-19 20:33N 48°23' W 004°29'0 0.0
2015-May-19 19:33N 48°23' W 004°29'0 0.0
2015-May-19 18:33N 48°23' W 004°29'0 0.0
2015-May-19 17:33N 48°23' W 004°29'0 0.0
2015-May-19 16:33N 48°23' W 004°29'0 0.0
2015-May-19 15:33N 48°23' W 004°29'0 0.0
2015-May-19 14:33N 48°23' W 004°29'0 0.0
2015-May-19 13:33N 48°23' W 004°29'0 0.0
2015-May-19 12:33N 48°23' W 004°29'0 0.0
2015-May-19 11:33N 48°23' W 004°29'0 0.0
2015-May-19 10:33N 48°23' W 004°29'0 0.0
2015-May-19 09:33N 48°23' W 004°29'0 0.0
2015-May-19 08:33N 48°23' W 004°29'0 0.0
2015-May-19 07:33N 48°23' W 004°29'0 0.0
2015-May-19 06:33N 48°23' W 004°29'0 0.0
2015-May-19 05:30N 48°23' W 004°29'0 0.0
2015-May-19 04:30N 48°23' W 004°29'0 0.0
2015-May-19 03:33N 48°23' W 004°29'0 0.0
2015-May-19 02:33N 48°23' W 004°29'0 0.0
2015-May-19 01:33N 48°23' W 004°29'0 0.0
2015-May-19 00:30N 48°23' W 004°29'0 0.0
2015-May-18 23:33N 48°23' W 004°29'0 0.0
2015-May-18 22:33N 48°23' W 004°29'0 0.0
2015-May-18 21:33N 48°23' W 004°29'0 0.0
2015-May-18 20:33N 48°23' W 004°29'0 0.0
2015-May-18 19:33N 48°23' W 004°29'0 0.0
2015-May-18 18:33N 48°23' W 004°29'0 0.0
2015-May-18 17:33N 48°23' W 004°29'0 0.0
2015-May-18 16:33N 48°23' W 004°29'0 0.0
2015-May-18 15:33N 48°23' W 004°29'0 0.0
2015-May-18 14:33N 48°23' W 004°29'0 0.0
2015-May-18 13:33N 48°23' W 004°29'0 0.0
2015-May-18 12:33N 48°23' W 004°29'0 0.0
2015-May-18 11:33N 48°23' W 004°29'0 0.0
2015-May-18 10:33N 48°23' W 004°29'0 0.0
2015-May-18 09:30N 48°23' W 004°29'0 0.0
2015-May-18 08:33N 48°23' W 004°29'0 0.0
2015-May-18 07:33N 48°23' W 004°29'0 0.0
2015-May-18 06:33N 48°23' W 004°29'0 0.0
2015-May-18 05:33N 48°23' W 004°29'0 0.0
2015-May-18 04:33N 48°23' W 004°29'0 0.0
2015-May-18 03:33N 48°23' W 004°29'0 0.0
2015-May-18 02:33N 48°23' W 004°29'0 0.0
2015-May-18 01:33N 48°23' W 004°29'0 0.0
2015-May-18 00:33N 48°23' W 004°29'0 0.0
2015-May-17 23:33N 48°23' W 004°29'2 2.0
2015-May-17 22:33N 48°22' W 004°31'1010.4
2015-May-17 21:33N 48°13' W 004°40'12 9.9
2015-May-17 20:23N 48°02' W 004°46'64 9.2
2015-May-17 13:30N 47°29' W 003°26'7010.1
2015-May-17 06:33N 46°41' W 002°10'1010.4
2015-May-17 05:33N 46°34' W 001°60'1010.0
2015-May-17 04:33N 46°28' W 001°48'2 1.6
2015-May-17 03:32N 46°30' W 001°48'0 0.0
2015-May-17 02:32N 46°30' W 001°48'0 0.0
2015-May-17 01:32N 46°30' W 001°48'0 0.0
2015-May-17 00:32N 46°30' W 001°48'0 0.0
2015-May-16 23:32N 46°30' W 001°48'0 0.0
2015-May-16 22:32N 46°30' W 001°48'0 0.0
2015-May-16 21:32N 46°30' W 001°48'0 0.0
2015-May-16 20:32N 46°30' W 001°48'0 0.0
2015-May-16 19:32N 46°30' W 001°48'0 0.0
2015-May-16 18:32N 46°30' W 001°48'0 0.0
2015-May-16 17:32N 46°30' W 001°48'0 0.0
2015-May-16 16:29N 46°30' W 001°48'0 0.0
2015-May-16 15:32N 46°30' W 001°48'0 0.0
2015-May-16 14:32N 46°30' W 001°48'0 0.0
2015-May-16 13:32N 46°30' W 001°48'0 0.0
2015-May-16 12:32N 46°30' W 001°48'0 0.0
2015-May-16 11:32N 46°30' W 001°48'0 0.0
2015-May-16 10:32N 46°30' W 001°48'0 0.0
2015-May-16 09:32N 46°30' W 001°48'0 0.0
2015-May-16 08:32N 46°30' W 001°48'0 0.0
2015-May-16 07:32N 46°30' W 001°48'0 0.0
2015-May-16 06:32N 46°30' W 001°48'0 0.0
2015-May-16 05:32N 46°30' W 001°48'0 0.0
2015-May-16 04:33N 46°30' W 001°48'0 0.0
2015-May-16 03:32N 46°30' W 001°48'0 0.0
2015-May-16 02:32N 46°30' W 001°48'0 0.0
2015-May-16 01:32N 46°30' W 001°48'0 0.0
2015-May-16 00:32N 46°30' W 001°48'0 0.0
2015-May-15 23:32N 46°30' W 001°48'0 0.0
2015-May-15 22:32N 46°30' W 001°48'0 0.0
2015-May-15 21:32N 46°30' W 001°48'0 0.0
2015-May-15 20:32N 46°30' W 001°48'0 0.0
2015-May-15 19:32N 46°30' W 001°48'0 0.0
2015-May-15 18:32N 46°30' W 001°48'0 0.0
2015-May-15 17:32N 46°30' W 001°48'0 0.0
2015-May-15 16:32N 46°30' W 001°48'0 0.0
2015-May-15 15:32N 46°30' W 001°48'0 0.1
2015-May-15 14:32N 46°30' W 001°47'5 5.5
2015-May-15 13:33N 46°25' W 001°45'  
2015-May-11 07:19N 45°15' W 000°44'0 0.0
2015-May-11 05:12N 45°15' W 000°44'  
Track history (hours):
 
Tides and Currents Weather Stations Pressure Air Temp Water Temp Dewpoint Dewpoint Depression Visibility Wind Speed Wind Dir Waves Ship Positions

Cotes De La Manche

Last reported at 2015-May-20 13:18 UTC. Time now 2015-May-24 19:26 UTC.
Position N 48°23' W 004°48'.

Length 25 m; draft 3.7 m.

Type: Other ship. MMSI: 227091000.

Date/timePositionNaut miles runAvg speedWind from/ knotsBaromVisibWave heightAir tempDewpointWater temp
2015-May-20 13:18N 48°23' W 004°48'6 8.8
2015-May-20 12:33N 48°19' W 004°41'9 8.8
2015-May-20 11:33N 48°23' W 004°29'0 0.0
2015-May-20 10:33N 48°23' W 004°29'0 0.0
2015-May-20 09:33N 48°23' W 004°29'0 0.0
2015-May-20 08:33N 48°23' W 004°29'0 0.0
2015-May-20 07:33N 48°23' W 004°29'0 0.0
2015-May-20 06:33N 48°23' W 004°29'0 0.0
2015-May-20 05:33N 48°23' W 004°29'0 0.0
2015-May-20 04:33N 48°23' W 004°29'0 0.0
2015-May-20 03:33N 48°23' W 004°29'0 0.0
2015-May-20 02:33N 48°23' W 004°29'0 0.0
2015-May-20 01:33N 48°23' W 004°29'0 0.0
2015-May-20 00:33N 48°23' W 004°29'0 0.0
2015-May-19 23:33N 48°23' W 004°29'0 0.0
2015-May-19 22:33N 48°23' W 004°29'0 0.0
2015-May-19 21:33N 48°23' W 004°29'0 0.0
2015-May-19 20:33N 48°23' W 004°29'0 0.0
2015-May-19 19:33N 48°23' W 004°29'0 0.0
2015-May-19 18:33N 48°23' W 004°29'0 0.0
2015-May-19 17:33N 48°23' W 004°29'0 0.0
2015-May-19 16:33N 48°23' W 004°29'0 0.0
2015-May-19 15:33N 48°23' W 004°29'0 0.0
2015-May-19 14:33N 48°23' W 004°29'0 0.0
2015-May-19 13:33N 48°23' W 004°29'0 0.0
2015-May-19 12:33N 48°23' W 004°29'0 0.0
2015-May-19 11:33N 48°23' W 004°29'0 0.0
2015-May-19 10:33N 48°23' W 004°29'0 0.0
2015-May-19 09:33N 48°23' W 004°29'0 0.0
2015-May-19 08:33N 48°23' W 004°29'0 0.0
2015-May-19 07:33N 48°23' W 004°29'0 0.0
2015-May-19 06:33N 48°23' W 004°29'0 0.0
2015-May-19 05:30N 48°23' W 004°29'0 0.0
2015-May-19 04:30N 48°23' W 004°29'0 0.0
2015-May-19 03:33N 48°23' W 004°29'0 0.0
2015-May-19 02:33N 48°23' W 004°29'0 0.0
2015-May-19 01:33N 48°23' W 004°29'0 0.0
2015-May-19 00:30N 48°23' W 004°29'0 0.0
2015-May-18 23:33N 48°23' W 004°29'0 0.0
2015-May-18 22:33N 48°23' W 004°29'0 0.0
2015-May-18 21:33N 48°23' W 004°29'0 0.0
2015-May-18 20:33N 48°23' W 004°29'0 0.0
2015-May-18 19:33N 48°23' W 004°29'0 0.0
2015-May-18 18:33N 48°23' W 004°29'0 0.0
2015-May-18 17:33N 48°23' W 004°29'0 0.0
2015-May-18 16:33N 48°23' W 004°29'0 0.0
2015-May-18 15:33N 48°23' W 004°29'0 0.0
2015-May-18 14:33N 48°23' W 004°29'0 0.0
2015-May-18 13:33N 48°23' W 004°29'0 0.0
2015-May-18 12:33N 48°23' W 004°29'0 0.0
2015-May-18 11:33N 48°23' W 004°29'0 0.0
2015-May-18 10:33N 48°23' W 004°29'0 0.0
2015-May-18 09:30N 48°23' W 004°29'0 0.0
2015-May-18 08:33N 48°23' W 004°29'0 0.0
2015-May-18 07:33N 48°23' W 004°29'0 0.0
2015-May-18 06:33N 48°23' W 004°29'0 0.0
2015-May-18 05:33N 48°23' W 004°29'0 0.0
2015-May-18 04:33N 48°23' W 004°29'0 0.0
2015-May-18 03:33N 48°23' W 004°29'0 0.0
2015-May-18 02:33N 48°23' W 004°29'0 0.0
2015-May-18 01:33N 48°23' W 004°29'0 0.0
2015-May-18 00:33N 48°23' W 004°29'0 0.0
2015-May-17 23:33N 48°23' W 004°29'2 2.0
2015-May-17 22:33N 48°22' W 004°31'1010.4
2015-May-17 21:33N 48°13' W 004°40'12 9.9
2015-May-17 20:23N 48°02' W 004°46'64 9.2
2015-May-17 13:30N 47°29' W 003°26'7010.1
2015-May-17 06:33N 46°41' W 002°10'1010.4
2015-May-17 05:33N 46°34' W 001°60'1010.0
2015-May-17 04:33N 46°28' W 001°48'2 1.6
2015-May-17 03:32N 46°30' W 001°48'0 0.0
2015-May-17 02:32N 46°30' W 001°48'0 0.0
2015-May-17 01:32N 46°30' W 001°48'0 0.0
2015-May-17 00:32N 46°30' W 001°48'0 0.0
2015-May-16 23:32N 46°30' W 001°48'0 0.0
2015-May-16 22:32N 46°30' W 001°48'0 0.0
2015-May-16 21:32N 46°30' W 001°48'0 0.0
2015-May-16 20:32N 46°30' W 001°48'0 0.0
2015-May-16 19:32N 46°30' W 001°48'0 0.0
2015-May-16 18:32N 46°30' W 001°48'0 0.0
2015-May-16 17:32N 46°30' W 001°48'0 0.0
2015-May-16 16:29N 46°30' W 001°48'0 0.0
2015-May-16 15:32N 46°30' W 001°48'0 0.0
2015-May-16 14:32N 46°30' W 001°48'0 0.0
2015-May-16 13:32N 46°30' W 001°48'0 0.0
2015-May-16 12:32N 46°30' W 001°48'0 0.0
2015-May-16 11:32N 46°30' W 001°48'0 0.0
2015-May-16 10:32N 46°30' W 001°48'0 0.0
2015-May-16 09:32N 46°30' W 001°48'0 0.0
2015-May-16 08:32N 46°30' W 001°48'0 0.0
2015-May-16 07:32N 46°30' W 001°48'0 0.0
2015-May-16 06:32N 46°30' W 001°48'0 0.0
2015-May-16 05:32N 46°30' W 001°48'0 0.0
2015-May-16 04:33N 46°30' W 001°48'0 0.0
2015-May-16 03:32N 46°30' W 001°48'0 0.0
2015-May-16 02:32N 46°30' W 001°48'0 0.0
2015-May-16 01:32N 46°30' W 001°48'0 0.0
2015-May-16 00:32N 46°30' W 001°48'0 0.0
2015-May-15 23:32N 46°30' W 001°48'0 0.0
2015-May-15 22:32N 46°30' W 001°48'0 0.0
2015-May-15 21:32N 46°30' W 001°48'0 0.0
2015-May-15 20:32N 46°30' W 001°48'0 0.0
2015-May-15 19:32N 46°30' W 001°48'0 0.0
2015-May-15 18:32N 46°30' W 001°48'0 0.0
2015-May-15 17:32N 46°30' W 001°48'0 0.0
2015-May-15 16:32N 46°30' W 001°48'0 0.0
2015-May-15 15:32N 46°30' W 001°48'0 0.1
2015-May-15 14:32N 46°30' W 001°47'5 5.5
2015-May-15 13:33N 46°25' W 001°45'  
2015-May-11 07:19N 45°15' W 000°44'0 0.0
2015-May-11 05:12N 45°15' W 000°44'  

Dump ship's entire track history